createdAt,value
2022-10-11T00:01:46.846Z,100633.56
2022-10-11T00:04:14.518Z,100636.50
2022-10-11T00:06:43.935Z,100639.22
2022-10-11T00:09:12.081Z,100646.44
2022-10-11T00:11:39.668Z,100632.50
2022-10-11T00:14:07.250Z,100646.78
2022-10-11T00:16:34.761Z,100646.78
2022-10-11T00:19:02.699Z,100648.63
2022-10-11T00:21:30.770Z,100644.94
2022-10-11T00:23:58.324Z,100651.75
2022-10-11T00:26:25.930Z,100656.63
2022-10-11T00:28:53.511Z,100658.88
2022-10-11T00:31:21.711Z,100657.56
2022-10-11T00:33:49.346Z,100665.06
2022-10-11T00:36:17.535Z,100664.59
2022-10-11T00:38:45.096Z,100669.53
2022-10-11T00:41:12.719Z,100663.84
2022-10-11T00:43:40.458Z,100671.63
2022-10-11T00:46:08.422Z,100671.53
2022-10-11T00:48:36.430Z,100670.41
2022-10-11T00:51:04.302Z,100675.53
2022-10-11T00:53:31.992Z,100677.03
2022-10-11T00:56:00.083Z,100676.78
2022-10-11T00:58:27.645Z,100678.28
2022-10-11T01:00:55.339Z,100677.25
2022-10-11T01:03:23.007Z,100676.66
2022-10-11T01:05:50.563Z,100674.28
2022-10-11T01:08:18.653Z,100676.47
2022-10-11T01:10:46.249Z,100675.22
2022-10-11T01:13:13.788Z,100675.72
2022-10-11T01:15:41.326Z,100676.16
2022-10-11T01:18:08.897Z,100675.69
2022-10-11T01:20:37.211Z,100673.59
2022-10-11T01:23:05.108Z,100684.59
2022-10-11T01:25:33.176Z,100684.88
2022-10-11T01:28:00.748Z,100686.84
2022-10-11T01:30:28.306Z,100687.78
2022-10-11T01:32:56.464Z,100678.13
2022-10-11T01:35:24.070Z,100684.47
2022-10-11T01:37:51.582Z,100695.06
2022-10-11T01:40:19.147Z,100694.13
2022-10-11T01:42:46.689Z,100689.78
2022-10-11T01:45:15.720Z,100696.94
2022-10-11T01:47:45.823Z,100693.63
2022-10-11T01:50:13.391Z,100699.97
2022-10-11T01:52:40.919Z,100692.94
2022-10-11T01:55:10.156Z,100690.28
2022-10-11T01:57:38.663Z,100689.38
2022-10-11T02:00:06.224Z,100692.03
2022-10-11T02:02:33.830Z,100695.59
2022-10-11T02:05:01.548Z,100688.78
2022-10-11T02:07:29.812Z,100692.53
2022-10-11T02:09:58.202Z,100696.13
2022-10-11T02:12:25.707Z,100698.03
2022-10-11T02:14:53.244Z,100694.69
2022-10-11T02:17:21.008Z,100694.88
2022-10-11T02:19:48.567Z,100700.09
2022-10-11T02:22:16.780Z,100698.22
2022-10-11T02:24:44.403Z,100701.81
2022-10-11T02:27:11.959Z,100701.81
2022-10-11T02:29:39.960Z,100703.81
2022-10-11T02:32:07.530Z,100708.41
2022-10-11T02:34:35.086Z,100711.38
2022-10-11T02:37:02.610Z,100702.91
2022-10-11T02:39:30.215Z,100703.28
2022-10-11T02:41:57.851Z,100707.91
2022-10-11T02:44:25.424Z,100707.31
2022-10-11T02:46:53.556Z,100712.88
2022-10-11T02:49:21.096Z,100713.88
2022-10-11T02:51:49.326Z,100710.47
2022-10-11T02:54:16.863Z,100711.41
2022-10-11T02:56:44.453Z,100712.38
2022-10-11T02:59:12.943Z,100712.44
2022-10-11T03:01:40.606Z,100717.81
2022-10-11T03:04:08.239Z,100717.06
2022-10-11T03:06:35.782Z,100718.94
2022-10-11T03:09:03.339Z,100720.91
2022-10-11T03:11:31.510Z,100729.97
2022-10-11T03:13:59.539Z,100732.00
2022-10-11T03:16:27.141Z,100730.53
2022-10-11T03:18:54.765Z,100729.84
2022-10-11T03:21:22.276Z,100741.47
2022-10-11T03:23:49.920Z,100740.78
2022-10-11T03:26:17.503Z,100738.31
2022-10-11T03:28:45.298Z,100739.44
2022-10-11T03:31:12.995Z,100745.75
2022-10-11T03:33:40.531Z,100746.69
2022-10-11T03:36:09.724Z,100751.97
2022-10-11T03:38:37.326Z,100751.81
2022-10-11T03:41:04.886Z,100761.28
2022-10-11T03:43:32.437Z,100754.91
2022-10-11T03:46:00.353Z,100763.53
2022-10-11T03:48:28.305Z,100764.41
2022-10-11T03:50:55.853Z,100762.66
2022-10-11T03:53:23.602Z,100762.78
2022-10-11T03:55:51.147Z,100770.88
2022-10-11T03:58:19.050Z,100777.28
2022-10-11T04:00:47.120Z,100781.81
2022-10-11T04:03:14.686Z,100774.88
2022-10-11T04:05:42.235Z,100779.38
2022-10-11T04:08:12.133Z,100776.84
2022-10-11T04:10:40.157Z,100790.91
2022-10-11T04:13:08.030Z,100782.13
2022-10-11T04:15:35.602Z,100790.16
2022-10-11T04:18:03.158Z,100794.50
2022-10-11T04:20:31.117Z,100793.66
2022-10-11T04:22:58.713Z,100798.97
2022-10-11T04:25:26.547Z,100801.69
2022-10-11T04:27:54.107Z,100796.31
2022-10-11T04:30:21.975Z,100798.03
2022-10-11T04:32:49.526Z,100801.50
2022-10-11T04:35:17.053Z,100804.34
2022-10-11T04:37:45.035Z,100800.06
2022-10-11T04:40:12.618Z,100810.97
2022-10-11T04:42:40.148Z,100813.09
2022-10-11T04:45:07.727Z,100813.47
2022-10-11T04:47:35.328Z,100815.56
2022-10-11T04:50:03.252Z,100819.41
2022-10-11T04:52:30.786Z,100811.75
2022-10-11T04:54:58.350Z,100818.13
2022-10-11T04:57:25.981Z,100819.31
2022-10-11T04:59:53.664Z,100826.63
2022-10-11T05:02:23.259Z,100822.41
2022-10-11T05:04:51.267Z,100823.41
2022-10-11T05:07:18.842Z,100820.94
2022-10-11T05:09:46.412Z,100822.94
2022-10-11T05:12:13.982Z,100826.69
2022-10-11T05:14:42.129Z,100823.41
2022-10-11T05:17:09.709Z,100825.34
2022-10-11T05:19:37.251Z,100827.22
2022-10-11T05:22:04.973Z,100826.41
2022-10-11T05:24:33.029Z,100830.84
2022-10-11T05:27:03.585Z,100829.28
2022-10-11T05:29:31.362Z,100837.31
2022-10-11T05:31:58.968Z,100837.53
2022-10-11T05:34:26.512Z,100839.47
2022-10-11T05:36:54.143Z,100841.25
2022-10-11T05:39:22.040Z,100851.75
2022-10-11T05:41:49.625Z,100850.75
2022-10-11T05:44:17.214Z,100848.00
2022-10-11T05:46:44.787Z,100847.03
2022-10-11T05:49:12.400Z,100854.13
2022-10-11T05:51:40.293Z,100862.13
2022-10-11T05:54:07.829Z,100863.03
2022-10-11T05:56:35.433Z,100857.81
2022-10-11T05:59:03.065Z,100858.75
2022-10-11T06:01:30.797Z,100865.81
2022-10-11T06:03:58.942Z,100866.75
2022-10-11T06:06:26.962Z,100864.16
2022-10-11T06:08:54.534Z,100866.97
2022-10-11T06:11:22.198Z,100872.25
2022-10-11T06:13:49.969Z,100877.53
2022-10-11T06:16:17.855Z,100882.84
2022-10-11T06:18:45.508Z,100881.06
2022-10-11T06:21:13.280Z,100886.25
2022-10-11T06:23:40.920Z,100880.91
2022-10-11T06:26:09.355Z,100886.03
2022-10-11T06:28:39.085Z,100887.56
2022-10-11T06:31:06.666Z,100896.28
2022-10-11T06:33:34.219Z,100887.25
2022-10-11T06:36:02.184Z,100893.34
2022-10-11T06:38:29.973Z,100898.41
2022-10-11T06:40:58.153Z,100905.19
2022-10-11T06:43:25.736Z,100896.97
2022-10-11T06:45:53.369Z,100901.97
2022-10-11T06:48:20.981Z,100900.88
2022-10-11T06:50:59.624Z,100909.47
2022-10-11T06:53:28.713Z,100910.56
2022-10-11T06:55:56.445Z,100914.72
2022-10-11T06:58:24.032Z,100919.53
2022-10-11T07:00:51.796Z,100916.38
2022-10-11T07:03:19.552Z,100925.00
2022-10-11T07:05:47.712Z,100921.19
2022-10-11T07:08:15.420Z,100928.19
2022-10-11T07:10:43.105Z,100928.91
2022-10-11T07:13:16.230Z,100933.91
2022-10-11T07:15:44.830Z,100930.84
2022-10-11T07:18:12.776Z,100936.66
2022-10-11T07:20:40.599Z,100938.19
2022-10-11T07:23:08.279Z,100938.94
2022-10-11T07:25:35.985Z,100941.38
2022-10-11T07:28:03.768Z,100938.25
2022-10-11T07:30:32.286Z,100942.59
2022-10-11T07:33:00.368Z,100948.28
2022-10-11T07:35:28.162Z,100942.63
2022-10-11T07:37:55.889Z,100943.88
2022-10-11T07:40:23.840Z,100943.69
2022-10-11T07:42:52.201Z,100941.19
2022-10-11T07:45:19.910Z,100938.63
2022-10-11T07:47:47.663Z,100935.19
2022-10-11T07:50:15.539Z,100942.16
2022-10-11T07:52:43.246Z,100939.53
2022-10-11T07:55:12.576Z,100936.06
2022-10-11T07:57:40.309Z,100939.69
2022-10-11T08:00:08.135Z,100942.75
2022-10-11T08:02:35.865Z,100938.75
2022-10-11T08:05:03.592Z,100936.56
2022-10-11T08:07:32.468Z,100936.16
2022-10-11T08:10:00.403Z,100942.91
2022-10-11T08:12:28.316Z,100947.75
2022-10-11T08:14:56.148Z,100943.56
2022-10-11T08:17:23.986Z,100948.22
2022-10-11T08:19:52.465Z,100952.88
2022-10-11T08:22:20.674Z,100953.63
2022-10-11T08:24:48.569Z,100949.75
2022-10-11T08:27:16.471Z,100948.06
2022-10-11T08:29:44.237Z,100954.25
2022-10-11T08:32:13.254Z,100949.75
2022-10-11T08:34:41.211Z,100946.28
2022-10-11T08:37:09.505Z,100946.50
2022-10-11T08:39:37.342Z,100948.19
2022-10-11T08:42:05.073Z,100953.66
2022-10-11T08:44:51.861Z,100950.31
2022-10-11T08:47:21.247Z,100952.31
2022-10-11T08:49:49.090Z,100954.81
2022-10-11T08:52:17.011Z,100946.78
2022-10-11T08:54:45.614Z,100956.59
2022-10-11T08:57:13.803Z,100946.56
2022-10-11T08:59:41.670Z,100950.25
2022-10-11T09:02:09.416Z,100952.06
2022-10-11T09:04:37.337Z,100945.06
2022-10-11T09:07:06.597Z,100950.22
2022-10-11T09:09:34.408Z,100942.84
2022-10-11T09:12:02.320Z,100939.94
2022-10-11T09:14:30.063Z,100943.00
2022-10-11T09:16:57.851Z,100936.38
2022-10-11T09:19:25.824Z,100936.78
2022-10-11T09:21:53.727Z,100943.13
2022-10-11T09:24:21.483Z,100941.84
2022-10-11T09:26:49.305Z,100946.84
2022-10-11T09:29:17.187Z,100943.56
2022-10-11T09:31:45.783Z,100946.63
2022-10-11T09:34:13.784Z,100943.13
2022-10-11T09:36:41.706Z,100945.00
2022-10-11T09:39:09.471Z,100951.38
2022-10-11T09:41:37.385Z,100949.44
2022-10-11T09:44:05.238Z,100942.78
2022-10-11T09:46:32.961Z,100934.19
2022-10-11T09:49:00.746Z,100942.00
2022-10-11T09:51:28.582Z,100940.41
2022-10-11T09:53:56.582Z,100927.41
2022-10-11T09:56:25.095Z,100931.09
2022-10-11T09:58:52.862Z,100934.00
2022-10-11T10:01:20.980Z,100928.25
2022-10-11T10:03:48.852Z,100927.44
2022-10-11T10:06:16.741Z,100924.81
2022-10-11T10:08:47.147Z,100921.47
2022-10-11T10:11:14.902Z,100936.09
2022-10-11T10:13:42.540Z,100932.34
2022-10-11T10:16:12.038Z,100938.56
2022-10-11T10:18:39.791Z,100931.69
2022-10-11T10:21:08.878Z,100936.44
2022-10-11T10:23:37.422Z,100933.50
2022-10-11T10:26:05.489Z,100938.78
2022-10-11T10:28:33.412Z,100935.47
2022-10-11T10:31:01.286Z,100938.94
2022-10-11T10:33:29.950Z,100941.03
2022-10-11T10:35:57.879Z,100941.25
2022-10-11T10:38:26.811Z,100943.84
2022-10-11T10:40:55.258Z,100940.13
2022-10-11T10:43:22.956Z,100946.50
2022-10-11T10:45:51.471Z,100934.03
2022-10-11T10:48:19.445Z,100942.25
2022-10-11T10:50:47.292Z,100935.56
2022-10-11T10:53:15.143Z,100930.41
2022-10-11T10:55:43.086Z,100936.78
2022-10-11T10:58:13.979Z,100933.66
2022-10-11T11:00:45.690Z,100935.97
2022-10-11T11:03:13.495Z,100935.09
2022-10-11T11:05:41.690Z,100938.66
2022-10-11T11:08:09.685Z,100936.97
2022-10-11T11:10:37.779Z,100926.34
2022-10-11T11:13:05.505Z,100930.19
2022-10-11T11:15:37.753Z,100924.81
2022-10-11T11:18:06.227Z,100924.66
2022-10-11T11:20:34.118Z,100928.19
2022-10-11T11:23:03.522Z,100930.28
2022-10-11T11:25:31.282Z,100927.38
2022-10-11T11:27:59.532Z,100920.13
2022-10-11T11:30:27.178Z,100911.03
2022-10-11T11:32:55.010Z,100910.09
2022-10-11T11:35:23.294Z,100903.44
2022-10-11T11:37:55.575Z,100907.97
2022-10-11T11:40:27.388Z,100905.31
2022-10-11T11:42:55.356Z,100901.41
2022-10-11T11:45:24.449Z,100906.44
2022-10-11T11:47:53.481Z,100911.06
2022-10-11T11:50:22.880Z,100911.44
2022-10-11T11:52:50.850Z,100909.47
2022-10-11T11:55:18.577Z,100909.91
2022-10-11T11:57:46.806Z,100905.97
2022-10-11T12:00:14.653Z,100903.38
2022-10-11T12:02:42.501Z,100904.53
2022-10-11T12:05:10.427Z,100903.94
2022-10-11T12:07:38.266Z,100901.56
2022-10-11T12:10:08.377Z,100901.81
2022-10-11T12:12:36.423Z,100901.66
2022-10-11T12:15:04.327Z,100909.41
2022-10-11T12:17:32.255Z,100907.13
2022-10-11T12:20:00.303Z,100907.13
2022-10-11T12:22:28.525Z,100901.91
2022-10-11T12:24:56.299Z,100893.28
2022-10-11T12:27:24.029Z,100888.66
2022-10-11T12:29:51.896Z,100890.34
2022-10-11T12:32:19.967Z,100883.84
2022-10-11T12:34:48.307Z,100886.03
2022-10-11T12:37:16.011Z,100877.16
2022-10-11T12:39:43.932Z,100871.78
2022-10-11T12:42:11.726Z,100868.63
2022-10-11T12:44:39.611Z,100862.69
2022-10-11T12:47:08.468Z,100866.59
2022-10-11T12:49:36.803Z,100869.38
2022-10-11T12:52:04.651Z,100869.09
2022-10-11T12:54:36.972Z,100862.97
2022-10-11T12:57:09.669Z,100860.66
2022-10-11T12:59:40.055Z,100871.00
2022-10-11T13:02:08.147Z,100867.22
2022-10-11T13:04:35.827Z,100862.69
2022-10-11T13:07:06.888Z,100867.41
2022-10-11T13:09:34.772Z,100868.41
2022-10-11T13:12:03.006Z,100864.31
2022-10-11T13:14:30.886Z,100868.38
2022-10-11T13:17:00.279Z,100864.03
2022-10-11T13:19:28.054Z,100861.09
2022-10-11T13:21:56.024Z,100852.78
2022-10-11T13:24:24.335Z,100855.47
2022-10-11T13:26:52.117Z,100842.38
2022-10-11T13:29:20.018Z,100848.84
2022-10-11T13:31:47.695Z,100842.72
2022-10-11T13:34:17.575Z,100844.78
2022-10-11T13:36:49.857Z,100839.84
2022-10-11T13:39:17.592Z,100839.69
2022-10-11T13:41:45.352Z,100835.00
2022-10-11T13:44:13.175Z,100833.09
2022-10-11T13:46:41.879Z,100831.47
2022-10-11T13:49:10.359Z,100827.25
2022-10-11T13:51:38.197Z,100831.25
2022-10-11T13:54:06.024Z,100828.19
2022-10-11T13:56:33.920Z,100829.25
2022-10-11T13:59:02.041Z,100827.22
2022-10-11T14:01:31.827Z,100828.88
2022-10-11T14:03:59.543Z,100829.28
2022-10-11T14:06:27.370Z,100832.03
2022-10-11T14:08:55.223Z,100831.69
2022-10-11T14:11:22.963Z,100827.31
2022-10-11T14:13:51.681Z,100821.16
2022-10-11T14:16:19.754Z,100825.19
2022-10-11T14:18:47.589Z,100820.22
2022-10-11T14:21:15.790Z,100815.47
2022-10-11T14:23:43.470Z,100819.81
2022-10-11T14:26:15.061Z,100823.28
2022-10-11T14:28:45.745Z,100820.34
2022-10-11T14:31:13.581Z,100816.84
2022-10-11T14:33:41.335Z,100826.22
2022-10-11T14:36:09.265Z,100827.88
2022-10-11T14:38:39.111Z,100830.94
2022-10-11T14:41:06.936Z,100832.34
2022-10-11T14:43:35.244Z,100834.78
2022-10-11T14:46:03.008Z,100829.28
2022-10-11T14:48:50.702Z,100831.41
2022-10-11T14:51:19.478Z,100835.22
2022-10-11T14:53:47.359Z,100829.09
2022-10-11T14:56:19.029Z,100820.75
2022-10-11T14:58:49.245Z,100825.88
2022-10-11T15:01:17.245Z,100817.41
2022-10-11T15:03:46.771Z,100814.09
2022-10-11T15:06:14.679Z,100812.50
2022-10-11T15:08:42.467Z,100809.44
2022-10-11T15:11:10.268Z,100802.66
2022-10-11T15:13:38.041Z,100802.28
2022-10-11T15:16:06.946Z,100802.66
2022-10-11T15:18:34.931Z,100790.34
2022-10-11T15:21:02.893Z,100791.34
2022-10-11T15:23:30.665Z,100788.28
2022-10-11T15:25:58.857Z,100789.13
2022-10-11T15:28:27.653Z,100789.50
2022-10-11T15:30:55.471Z,100789.63
2022-10-11T15:33:23.298Z,100800.88
2022-10-11T15:35:51.169Z,100800.44
2022-10-11T15:38:18.927Z,100805.75
2022-10-11T15:40:47.251Z,100811.41
2022-10-11T15:43:15.186Z,100811.09
2022-10-11T15:45:43.020Z,100815.34
2022-10-11T15:48:11.133Z,100816.00
2022-10-11T15:50:39.021Z,100822.06
2022-10-11T15:53:07.526Z,100821.91
2022-10-11T15:55:35.300Z,100823.31
2022-10-11T15:58:03.241Z,100818.00
2022-10-11T16:00:31.050Z,100821.28
2022-10-11T16:02:58.854Z,100826.00
2022-10-11T16:05:27.397Z,100824.47
2022-10-11T16:07:55.245Z,100821.09
2022-10-11T16:10:23.510Z,100826.56
2022-10-11T16:12:51.338Z,100822.00
2022-10-11T16:15:19.292Z,100830.03
2022-10-11T16:17:47.562Z,100840.44
2022-10-11T16:20:15.415Z,100833.06
2022-10-11T16:22:43.418Z,100831.72
2022-10-11T16:25:11.317Z,100832.13
2022-10-11T16:27:39.298Z,100837.00
2022-10-11T16:30:07.782Z,100829.19
2022-10-11T16:32:35.971Z,100830.28
2022-10-11T16:35:04.012Z,100826.84
2022-10-11T16:37:31.759Z,100829.63
2022-10-11T16:39:59.674Z,100837.78
2022-10-11T16:42:27.756Z,100834.44
2022-10-11T16:44:55.516Z,100836.31
2022-10-11T16:47:23.339Z,100832.75
2022-10-11T16:49:51.175Z,100831.81
2022-10-11T16:52:18.874Z,100846.00
2022-10-11T16:54:48.779Z,100840.69
2022-10-11T16:57:16.571Z,100840.53
2022-10-11T16:59:44.422Z,100841.19
2022-10-11T17:02:12.281Z,100840.16
2022-10-11T17:04:40.284Z,100846.19
2022-10-11T17:07:12.847Z,100843.22
2022-10-11T17:09:44.033Z,100851.75
2022-10-11T17:12:13.072Z,100854.25
2022-10-11T17:14:40.872Z,100852.22
2022-10-11T17:17:09.195Z,100841.34
2022-10-11T17:19:41.337Z,100843.72
2022-10-11T17:22:11.943Z,100845.19
2022-10-11T17:24:39.800Z,100846.66
2022-10-11T17:27:07.600Z,100848.16
2022-10-11T17:29:35.826Z,100844.28
2022-10-11T17:32:03.847Z,100850.25
2022-10-11T17:34:31.841Z,100844.69
2022-10-11T17:37:00.191Z,100855.88
2022-10-11T17:39:27.966Z,100847.53
2022-10-11T17:41:56.372Z,100856.91
2022-10-11T17:44:24.688Z,100850.28
2022-10-11T17:46:52.635Z,100856.97
2022-10-11T17:49:20.515Z,100852.06
2022-10-11T17:51:48.327Z,100847.22
2022-10-11T17:54:16.881Z,100846.84
2022-10-11T17:56:45.256Z,100847.47
2022-10-11T17:59:13.652Z,100847.19
2022-10-11T18:01:41.588Z,100850.28
2022-10-11T18:04:16.639Z,100849.06
2022-10-11T18:06:45.730Z,100854.97
2022-10-11T18:09:13.641Z,100858.09
2022-10-11T18:11:41.385Z,100852.25
2022-10-11T18:14:09.214Z,100850.72
2022-10-11T18:16:37.060Z,100852.63
2022-10-11T18:19:05.570Z,100858.13
2022-10-11T18:21:34.815Z,100863.63
2022-10-11T18:24:02.851Z,100859.41
2022-10-11T18:26:31.214Z,100860.50
2022-10-11T18:28:59.171Z,100853.84
2022-10-11T18:31:27.514Z,100855.03
2022-10-11T18:33:55.409Z,100850.97
2022-10-11T18:36:23.196Z,100853.16
2022-10-11T18:38:51.034Z,100852.59
2022-10-11T18:41:18.971Z,100849.38
2022-10-11T18:43:49.053Z,100856.75
2022-10-11T18:46:16.824Z,100855.22
2022-10-11T18:48:44.806Z,100854.53
2022-10-11T18:51:12.654Z,100853.88
2022-10-11T18:53:40.417Z,100860.94
2022-10-11T18:56:09.113Z,100858.28
2022-10-11T18:58:37.215Z,100854.75
2022-10-11T19:01:04.986Z,100857.59
2022-10-11T19:03:35.249Z,100857.88
2022-10-11T19:06:04.084Z,100852.56
2022-10-11T19:08:32.684Z,100848.16
2022-10-11T19:11:00.848Z,100846.59
2022-10-11T19:13:28.607Z,100843.25
2022-10-11T19:15:56.406Z,100855.75
2022-10-11T19:18:25.742Z,100843.59
2022-10-11T19:20:53.677Z,100844.72
2022-10-11T19:23:22.444Z,100838.75
2022-10-11T19:25:50.431Z,100837.13
2022-10-11T19:28:18.907Z,100839.28
2022-10-11T19:30:46.900Z,100847.63
2022-10-11T19:33:15.339Z,100832.81
2022-10-11T19:35:43.680Z,100844.56
2022-10-11T19:38:11.561Z,100845.69
2022-10-11T19:40:39.586Z,100839.69
2022-10-11T19:43:07.881Z,100841.56
2022-10-11T19:45:36.375Z,100833.78
2022-10-11T19:48:04.308Z,100831.31
2022-10-11T19:50:32.621Z,100833.19
2022-10-11T19:53:00.474Z,100830.72
2022-10-11T19:55:28.396Z,100831.00
2022-10-11T19:57:56.827Z,100835.72
2022-10-11T20:00:24.696Z,100826.38
2022-10-11T20:02:52.728Z,100838.22
2022-10-11T20:05:20.567Z,100835.91
2022-10-11T20:07:48.451Z,100830.09
2022-10-11T20:10:17.111Z,100839.25
2022-10-11T20:12:46.085Z,100841.31
2022-10-11T20:15:13.988Z,100840.69
2022-10-11T20:17:51.852Z,100846.22
2022-10-11T20:20:20.042Z,100842.13
2022-10-11T20:22:47.872Z,100841.50
2022-10-11T20:25:15.761Z,100846.91
2022-10-11T20:27:43.905Z,100854.09
2022-10-11T20:30:11.735Z,100843.72
2022-10-11T20:32:39.987Z,100844.75
2022-10-11T20:35:09.413Z,100842.28
2022-10-11T20:37:37.334Z,100838.94
2022-10-11T20:40:05.215Z,100839.13
2022-10-11T20:42:32.979Z,100834.81
2022-10-11T20:45:01.227Z,100842.78
2022-10-11T20:47:29.191Z,100837.47
2022-10-11T20:49:57.101Z,100844.56
2022-10-11T20:52:24.766Z,100834.06
2022-10-11T20:54:52.931Z,100840.38
2022-10-11T20:57:21.294Z,100836.97
2022-10-11T20:59:48.988Z,100834.47
2022-10-11T21:02:19.097Z,100843.44
2022-10-11T21:04:47.067Z,100837.44
2022-10-11T21:07:14.782Z,100842.91
2022-10-11T21:09:43.061Z,100836.03
2022-10-11T21:12:10.830Z,100837.09
2022-10-11T21:14:38.590Z,100840.75
2022-10-11T21:17:06.312Z,100839.97
2022-10-11T21:19:34.114Z,100837.47
2022-10-11T21:22:02.538Z,100838.59
2022-10-11T21:24:30.346Z,100841.47
2022-10-11T21:27:00.637Z,100839.06
2022-10-11T21:29:28.710Z,100832.28
2022-10-11T21:31:56.493Z,100828.09
2022-10-11T21:34:24.731Z,100830.06
2022-10-11T21:36:52.799Z,100829.25
2022-10-11T21:39:20.568Z,100832.16
2022-10-11T21:41:48.284Z,100829.59
2022-10-11T21:44:16.232Z,100823.59
2022-10-11T21:49:32.113Z,100832.78
2022-10-11T21:51:59.802Z,100832.09
2022-10-11T21:54:27.442Z,100826.09
2022-10-11T21:56:56.563Z,100824.53
2022-10-11T21:59:24.471Z,100828.97
2022-10-11T22:01:52.359Z,100815.81
2022-10-11T22:04:20.157Z,100816.81
2022-10-11T22:06:47.797Z,100817.00
2022-10-11T22:09:15.643Z,100826.94
2022-10-11T22:11:43.372Z,100821.09
2022-10-11T22:14:11.122Z,100821.41
2022-10-11T22:16:38.822Z,100829.66
2022-10-11T22:19:06.465Z,100819.47
2022-10-11T22:21:34.673Z,100816.16
2022-10-11T22:24:02.320Z,100820.81
2022-10-11T22:26:30.900Z,100829.91
2022-10-11T22:28:58.679Z,100827.50
2022-10-11T22:31:26.357Z,100825.03
2022-10-11T22:33:54.560Z,100828.66
2022-10-11T22:36:24.303Z,100834.88
2022-10-11T22:38:52.087Z,100834.88
2022-10-11T22:41:19.746Z,100834.00
2022-10-11T22:43:47.634Z,100835.72
2022-10-11T22:46:15.833Z,100843.72
2022-10-11T22:48:43.517Z,100835.00
2022-10-11T22:51:11.273Z,100830.72
2022-10-11T22:53:38.937Z,100835.31
2022-10-11T22:56:06.634Z,100837.16
2022-10-11T22:58:35.196Z,100826.66
2022-10-11T23:01:03.245Z,100828.53
2022-10-11T23:03:30.951Z,100827.75
2022-10-11T23:05:58.788Z,100827.88
2022-10-11T23:08:26.419Z,100828.03
2022-10-11T23:10:54.739Z,100827.25
2022-10-11T23:13:22.516Z,100824.63
2022-10-11T23:15:50.122Z,100829.91
2022-10-11T23:18:17.754Z,100836.97
2022-10-11T23:20:45.358Z,100830.03
2022-10-11T23:23:15.015Z,100831.97
2022-10-11T23:25:42.640Z,100828.53
2022-10-11T23:28:10.321Z,100833.03
2022-10-11T23:30:37.872Z,100833.03
2022-10-11T23:33:05.479Z,100830.47
2022-10-11T23:35:33.957Z,100822.63
2022-10-11T23:38:01.562Z,100827.09
2022-10-11T23:40:29.122Z,100815.91
2022-10-11T23:42:56.719Z,100818.75
2022-10-11T23:45:24.260Z,100819.00
2022-10-11T23:47:52.176Z,100818.34
2022-10-11T23:50:19.790Z,100818.56
2022-10-11T23:52:47.365Z,100811.69
2022-10-11T23:55:14.931Z,100820.56
2022-10-11T23:57:42.545Z,100822.41
